Main page
METAR-TAF:

METAR-TAF

Airports :

Perpignan, France

Perpignan–Rivesaltes Airport

latitude: 42-44N, longitude: 002-52E, elevation: 43 m

Current weather observation

The report was made 20 minutes ago, at 07:00 UTC
Wind 4 kt from the West
Temperature 10°C
Humidity 87%
Pressure 1016 hPa
Visibility 10 km or more
Overcast at a height of 900 ft

METAR: LFMP 220700Z AUTO 26004KT 9999 OVC009 10/08 Q1016 TEMPO 2000 BR

Time: 08:20 (07:20 UTC)

Forecast

The report was made 5 hours and 20 minutes ago, at 02:00 UTC
Forecast valid from 22 at 03 UTC to 23 at 03 UTC
Wind 5 kt from variable directions
Visibility 10 km or more
no clouds below 1500 m and no cumulonimbus
Temporary
from 22 at 03 UTC to 22 at 11 UTC
Visibility: 2000 m
Broken clouds at a height of 500 ft
mist

TAF: LFMP 220200Z 2203/2303 VRB05KT CAVOK TEMPO 2203/2211 2000 BR BKN005

Weather observations and forecasts of more than 4000 airports (METAR and TAF reports).

The available stations are represented by yellow and red dots on the map.

Hover mouse over dot to see the name of the station.

Then click to see weather observations and forecasts.

To change the map : click on the green buttons with a black cross to zoom in, on the green button with a dash to zoom out, or on the green arrows for adjacent maps.


METAR-TAF: